LHA8849 KSEA-KMFR
Flight info
| Callsign | LHA8849 |
|---|---|
| Flight time | 0h 48m |
| Altitude | 23000 |
| Route | FEPOT DCT SAMIE |
| Aircraft | B737/M-SDE1E2FGIJ1RWYZ/S |
Departure
| Time | 2026-04-16 15:11 |
|---|---|
| Airport | Seattle–Tacoma International Airport (KSEA) |
Arrival
| Time | 2026-04-16 15:59 |
|---|---|
| Airport | Rogue Valley International-Medford Airport (KMFR) |
| Time | Latitude | Longitude | Altitude | Speed | Heading |
|---|---|---|---|---|---|
| 2026-04-16 14:34 | 47.43916 | -122.30330 | 382 ft | 0 kts | 145° |
| 2026-04-16 14:54 | 47.43926 | -122.30340 | 383 ft | 2 kts | 145° |
| 2026-04-16 14:54 | 47.43939 | -122.30354 | 383 ft | 2 kts | 145° |
| 2026-04-16 14:54 | 47.43952 | -122.30368 | 383 ft | 2 kts | 154° |
| 2026-04-16 14:55 | 47.43968 | -122.30373 | 383 ft | 2 kts | 209° |
| 2026-04-16 14:55 | 47.43976 | -122.30365 | 383 ft | 0 kts | 231° |
| 2026-04-16 15:05 | 47.43971 | -122.30376 | 383 ft | 3 kts | 244° |
| 2026-04-16 15:05 | 47.43973 | -122.30416 | 383 ft | 5 kts | 292° |
| 2026-04-16 15:05 | 47.43987 | -122.30464 | 383 ft | 5 kts | 290° |
| 2026-04-16 15:06 | 47.43992 | -122.30515 | 383 ft | 5 kts | 275° |
| 2026-04-16 15:06 | 47.43994 | -122.30576 | 383 ft | 7 kts | 274° |
| 2026-04-16 15:06 | 47.44023 | -122.30632 | 383 ft | 7 kts | 336° |
| 2026-04-16 15:06 | 47.44077 | -122.30636 | 383 ft | 9 kts | 1° |
| 2026-04-16 15:07 | 47.44146 | -122.30635 | 383 ft | 11 kts | 0° |
| 2026-04-16 15:07 | 47.44233 | -122.30635 | 383 ft | 14 kts | 0° |
| 2026-04-16 15:07 | 47.44335 | -122.30634 | 383 ft | 16 kts | 0° |
| 2026-04-16 15:07 | 47.44448 | -122.30633 | 383 ft | 17 kts | 0° |
| 2026-04-16 15:08 | 47.44573 | -122.30633 | 383 ft | 19 kts | 0° |
| 2026-04-16 15:08 | 47.44704 | -122.30632 | 383 ft | 18 kts | 0° |
| 2026-04-16 15:08 | 47.44830 | -122.30631 | 383 ft | 18 kts | 0° |
| 2026-04-16 15:08 | 47.44944 | -122.30630 | 383 ft | 17 kts | 0° |
| 2026-04-16 15:09 | 47.45063 | -122.30629 | 383 ft | 17 kts | 0° |
| 2026-04-16 15:09 | 47.45189 | -122.30628 | 383 ft | 19 kts | 0° |
| 2026-04-16 15:09 | 47.45323 | -122.30625 | 383 ft | 19 kts | 1° |
| 2026-04-16 15:09 | 47.45453 | -122.30624 | 383 ft | 18 kts | 359° |
| 2026-04-16 15:10 | 47.45561 | -122.30702 | 383 ft | 15 kts | 319° |
| 2026-04-16 15:10 | 47.45556 | -122.30787 | 383 ft | 11 kts | 191° |
| 2026-04-16 15:10 | 47.45483 | -122.30785 | 383 ft | 10 kts | 178° |
| 2026-04-16 15:10 | 47.45397 | -122.30787 | 383 ft | 25 kts | 181° |
| 2026-04-16 15:11 | 47.44926 | -122.30789 | 383 ft | 115 kts | 180° |
| 2026-04-16 15:11 | 47.43867 | -122.30800 | 594 ft | 176 kts | 181° |
| 2026-04-16 15:11 | 47.42577 | -122.30852 | 1500 ft | 191 kts | 181° |
| 2026-04-16 15:11 | 47.41368 | -122.30878 | 3124 ft | 156 kts | 180° |
| 2026-04-16 15:12 | 47.40190 | -122.30899 | 3927 ft | 179 kts | 181° |
| 2026-04-16 15:12 | 47.38912 | -122.30907 | 4716 ft | 194 kts | 182° |
| 2026-04-16 15:12 | 47.37522 | -122.30947 | 5485 ft | 204 kts | 183° |
| 2026-04-16 15:12 | 47.36075 | -122.31000 | 6246 ft | 213 kts | 184° |
| 2026-04-16 15:13 | 47.34587 | -122.31058 | 6971 ft | 219 kts | 183° |
| 2026-04-16 15:13 | 47.33068 | -122.31419 | 7706 ft | 222 kts | 208° |
| 2026-04-16 15:13 | 47.31967 | -122.32931 | 8468 ft | 218 kts | 246° |
| 2026-04-16 15:13 | 47.31550 | -122.35067 | 9247 ft | 221 kts | 262° |
| 2026-04-16 15:14 | 47.31312 | -122.37333 | 9988 ft | 233 kts | 264° |
| 2026-04-16 15:14 | 47.31070 | -122.39760 | 10770 ft | 245 kts | 264° |
| 2026-04-16 15:14 | 47.30809 | -122.42302 | 11550 ft | 257 kts | 265° |
| 2026-04-16 15:14 | 47.30619 | -122.44978 | 12320 ft | 267 kts | 273° |
| 2026-04-16 15:15 | 47.30671 | -122.47758 | 13095 ft | 276 kts | 277° |
| 2026-04-16 15:15 | 47.30787 | -122.50637 | 13864 ft | 287 kts | 277° |
| 2026-04-16 15:15 | 47.30906 | -122.53620 | 14638 ft | 297 kts | 277° |
| 2026-04-16 15:15 | 47.31017 | -122.56707 | 15394 ft | 307 kts | 277° |
| 2026-04-16 15:16 | 47.31120 | -122.59893 | 16154 ft | 316 kts | 277° |
| 2026-04-16 15:16 | 47.31215 | -122.63124 | 16913 ft | 324 kts | 277° |
| 2026-04-16 15:16 | 47.31309 | -122.66476 | 17670 ft | 331 kts | 277° |
| 2026-04-16 15:16 | 47.31401 | -122.69905 | 18427 ft | 339 kts | 277° |
| 2026-04-16 15:17 | 47.31494 | -122.73401 | 19190 ft | 345 kts | 278° |
| 2026-04-16 15:17 | 47.31482 | -122.76972 | 19924 ft | 356 kts | 268° |
| 2026-04-16 15:17 | 47.30756 | -122.80538 | 20701 ft | 369 kts | 255° |
| 2026-04-16 15:17 | 47.29791 | -122.84081 | 21455 ft | 375 kts | 254° |
| 2026-04-16 15:18 | 47.28791 | -122.87640 | 22208 ft | 378 kts | 255° |
| 2026-04-16 15:18 | 47.27788 | -122.91248 | 22918 ft | 383 kts | 256° |
| 2026-04-16 15:18 | 47.26799 | -122.94904 | 23223 ft | 398 kts | 256° |
| 2026-04-16 15:18 | 47.25764 | -122.98779 | 23262 ft | 415 kts | 256° |
| 2026-04-16 15:19 | 47.24568 | -123.02756 | 23264 ft | 440 kts | 246° |
| 2026-04-16 15:19 | 47.22547 | -123.06312 | 23266 ft | 470 kts | 226° |
| 2026-04-16 15:19 | 47.19903 | -123.09275 | 23266 ft | 485 kts | 220° |
| 2026-04-16 15:19 | 47.17112 | -123.12154 | 23267 ft | 494 kts | 220° |
| 2026-04-16 15:20 | 47.14301 | -123.15094 | 23261 ft | 498 kts | 221° |
| 2026-04-16 15:20 | 47.11508 | -123.18104 | 23249 ft | 498 kts | 221° |
| 2026-04-16 15:20 | 47.08510 | -123.20574 | 23275 ft | 508 kts | 205° |
| 2026-04-16 15:20 | 47.05067 | -123.21840 | 23257 ft | 516 kts | 187° |
| 2026-04-16 15:21 | 47.01476 | -123.21857 | 23285 ft | 517 kts | 179° |
| 2026-04-16 15:21 | 46.97878 | -123.21629 | 23266 ft | 518 kts | 178° |
| 2026-04-16 15:21 | 46.94279 | -123.21367 | 23261 ft | 518 kts | 178° |
| 2026-04-16 15:21 | 46.90682 | -123.21113 | 23259 ft | 517 kts | 178° |
| 2026-04-16 15:22 | 46.87092 | -123.20881 | 23265 ft | 517 kts | 178° |
| 2026-04-16 15:22 | 46.83496 | -123.20674 | 23272 ft | 517 kts | 179° |
| 2026-04-16 15:22 | 46.79949 | -123.20486 | 23295 ft | 517 kts | 179° |
| 2026-04-16 15:22 | 46.76347 | -123.20307 | 23283 ft | 518 kts | 179° |
| 2026-04-16 15:23 | 46.72742 | -123.20134 | 23284 ft | 518 kts | 179° |
| 2026-04-16 15:23 | 46.69139 | -123.19963 | 23288 ft | 518 kts | 179° |
| 2026-04-16 15:23 | 46.65533 | -123.19792 | 23286 ft | 519 kts | 179° |
| 2026-04-16 15:23 | 46.61928 | -123.19619 | 23284 ft | 519 kts | 179° |
| 2026-04-16 15:24 | 46.58316 | -123.19446 | 23290 ft | 519 kts | 179° |
| 2026-04-16 15:24 | 46.54702 | -123.19272 | 23276 ft | 519 kts | 179° |
| 2026-04-16 15:24 | 46.51091 | -123.19097 | 23291 ft | 519 kts | 179° |
| 2026-04-16 15:24 | 46.47528 | -123.18924 | 23282 ft | 520 kts | 179° |
| 2026-04-16 15:25 | 46.43911 | -123.18748 | 23302 ft | 520 kts | 179° |
| 2026-04-16 15:25 | 46.40296 | -123.18573 | 23289 ft | 520 kts | 179° |
| 2026-04-16 15:25 | 46.36684 | -123.18399 | 23293 ft | 520 kts | 179° |
| 2026-04-16 15:25 | 46.33070 | -123.18226 | 23305 ft | 520 kts | 179° |
| 2026-04-16 15:26 | 46.29449 | -123.18052 | 23294 ft | 521 kts | 179° |
| 2026-04-16 15:26 | 46.25829 | -123.17880 | 23299 ft | 521 kts | 179° |
| 2026-04-16 15:26 | 46.22258 | -123.17709 | 23312 ft | 521 kts | 179° |
| 2026-04-16 15:26 | 46.18636 | -123.17536 | 23301 ft | 521 kts | 180° |
| 2026-04-16 15:27 | 46.15010 | -123.17364 | 23309 ft | 521 kts | 180° |
| 2026-04-16 15:27 | 46.11384 | -123.17190 | 23312 ft | 521 kts | 180° |
| 2026-04-16 15:27 | 46.07759 | -123.17017 | 23315 ft | 521 kts | 180° |
| 2026-04-16 15:27 | 46.04136 | -123.16844 | 23313 ft | 521 kts | 180° |
| 2026-04-16 15:28 | 46.00507 | -123.16670 | 23316 ft | 522 kts | 180° |
| 2026-04-16 15:28 | 45.96880 | -123.16498 | 23306 ft | 521 kts | 180° |
| 2026-04-16 15:28 | 45.93303 | -123.16329 | 23300 ft | 522 kts | 180° |
| 2026-04-16 15:28 | 45.89667 | -123.16157 | 23310 ft | 523 kts | 180° |
| 2026-04-16 15:29 | 45.86028 | -123.15984 | 23317 ft | 524 kts | 180° |
| 2026-04-16 15:29 | 45.82382 | -123.15811 | 23319 ft | 525 kts | 180° |
| 2026-04-16 15:29 | 45.78730 | -123.15639 | 23317 ft | 525 kts | 180° |
| 2026-04-16 15:29 | 45.75077 | -123.15469 | 23313 ft | 526 kts | 180° |
| 2026-04-16 15:30 | 45.71423 | -123.15297 | 23303 ft | 525 kts | 180° |
| 2026-04-16 15:30 | 45.67772 | -123.15126 | 23310 ft | 525 kts | 180° |
| 2026-04-16 15:30 | 45.64174 | -123.14957 | 23305 ft | 524 kts | 180° |
| 2026-04-16 15:30 | 45.60532 | -123.14786 | 23308 ft | 523 kts | 180° |
| 2026-04-16 15:31 | 45.56896 | -123.14616 | 23314 ft | 523 kts | 180° |
| 2026-04-16 15:31 | 45.53261 | -123.14447 | 23312 ft | 522 kts | 180° |
| 2026-04-16 15:31 | 45.49630 | -123.14277 | 23324 ft | 522 kts | 180° |
| 2026-04-16 15:31 | 45.45996 | -123.14107 | 23311 ft | 522 kts | 180° |
| 2026-04-16 15:32 | 45.42366 | -123.13938 | 23320 ft | 522 kts | 180° |
| 2026-04-16 15:32 | 45.38735 | -123.13769 | 23319 ft | 523 kts | 180° |
| 2026-04-16 15:32 | 45.35149 | -123.13602 | 23311 ft | 522 kts | 180° |
| 2026-04-16 15:32 | 45.31513 | -123.13434 | 23316 ft | 523 kts | 180° |
| 2026-04-16 15:33 | 45.27873 | -123.13266 | 23317 ft | 523 kts | 181° |
| 2026-04-16 15:33 | 45.24237 | -123.13098 | 23316 ft | 523 kts | 181° |
| 2026-04-16 15:33 | 45.20593 | -123.12929 | 23313 ft | 524 kts | 181° |
| 2026-04-16 15:33 | 45.16953 | -123.12761 | 23311 ft | 523 kts | 181° |
| 2026-04-16 15:34 | 45.13311 | -123.12592 | 23313 ft | 524 kts | 181° |
| 2026-04-16 15:34 | 45.09666 | -123.12424 | 23309 ft | 524 kts | 181° |
| 2026-04-16 15:34 | 45.06077 | -123.12258 | 23309 ft | 523 kts | 181° |
| 2026-04-16 15:34 | 45.02436 | -123.12090 | 23300 ft | 523 kts | 181° |
| 2026-04-16 15:35 | 44.98800 | -123.11924 | 23316 ft | 523 kts | 181° |
| 2026-04-16 15:35 | 44.95160 | -123.11758 | 23308 ft | 523 kts | 181° |
| 2026-04-16 15:35 | 44.91523 | -123.11592 | 23306 ft | 523 kts | 181° |
| 2026-04-16 15:35 | 44.87880 | -123.11426 | 23310 ft | 524 kts | 181° |
| 2026-04-16 15:36 | 44.84279 | -123.11265 | 23305 ft | 525 kts | 181° |
| 2026-04-16 15:36 | 44.80581 | -123.11097 | 23308 ft | 525 kts | 181° |
| 2026-04-16 15:36 | 44.76981 | -123.10933 | 23320 ft | 525 kts | 181° |
| 2026-04-16 15:36 | 44.73332 | -123.10766 | 23321 ft | 525 kts | 181° |
| 2026-04-16 15:37 | 44.69682 | -123.10600 | 23325 ft | 525 kts | 181° |
| 2026-04-16 15:37 | 44.66029 | -123.10434 | 23331 ft | 525 kts | 181° |
| 2026-04-16 15:37 | 44.62374 | -123.10268 | 23333 ft | 526 kts | 181° |
| 2026-04-16 15:37 | 44.58714 | -123.10103 | 23335 ft | 526 kts | 181° |
| 2026-04-16 15:38 | 44.55058 | -123.09937 | 23330 ft | 526 kts | 181° |
| 2026-04-16 15:38 | 44.51446 | -123.09775 | 23331 ft | 526 kts | 181° |
| 2026-04-16 15:38 | 44.47790 | -123.09610 | 23330 ft | 526 kts | 181° |
| 2026-04-16 15:38 | 44.44131 | -123.09445 | 23335 ft | 526 kts | 181° |
| 2026-04-16 15:39 | 44.40473 | -123.09281 | 23340 ft | 526 kts | 181° |
| 2026-04-16 15:39 | 44.36814 | -123.09116 | 23341 ft | 526 kts | 181° |
| 2026-04-16 15:39 | 44.33163 | -123.08953 | 23340 ft | 526 kts | 181° |
| 2026-04-16 15:39 | 44.29493 | -123.08788 | 23339 ft | 527 kts | 181° |
| 2026-04-16 15:40 | 44.25875 | -123.08627 | 23342 ft | 527 kts | 181° |
| 2026-04-16 15:40 | 44.22208 | -123.08463 | 23342 ft | 528 kts | 181° |
| 2026-04-16 15:40 | 44.18536 | -123.08299 | 23341 ft | 528 kts | 181° |
| 2026-04-16 15:40 | 44.14871 | -123.08137 | 23341 ft | 527 kts | 181° |
| 2026-04-16 15:41 | 44.11202 | -123.07973 | 23340 ft | 527 kts | 181° |
| 2026-04-16 15:41 | 44.07537 | -123.07811 | 23340 ft | 527 kts | 181° |
| 2026-04-16 15:41 | 44.03867 | -123.07649 | 23342 ft | 527 kts | 181° |
| 2026-04-16 15:41 | 44.00200 | -123.07486 | 23342 ft | 527 kts | 181° |
| 2026-04-16 15:42 | 43.96582 | -123.07326 | 23339 ft | 527 kts | 182° |
| 2026-04-16 15:42 | 43.92918 | -123.07162 | 23335 ft | 527 kts | 182° |
| 2026-04-16 15:42 | 43.89251 | -123.06999 | 23340 ft | 527 kts | 182° |
| 2026-04-16 15:42 | 43.85583 | -123.06837 | 23342 ft | 527 kts | 182° |
| 2026-04-16 15:43 | 43.81913 | -123.06675 | 23342 ft | 528 kts | 182° |
| 2026-04-16 15:43 | 43.78239 | -123.06515 | 23341 ft | 528 kts | 182° |
| 2026-04-16 15:43 | 43.74568 | -123.06354 | 23345 ft | 528 kts | 182° |
| 2026-04-16 15:43 | 43.70889 | -123.06193 | 23336 ft | 529 kts | 182° |
| 2026-04-16 15:44 | 43.67267 | -123.06034 | 23349 ft | 529 kts | 182° |
| 2026-04-16 15:44 | 43.63589 | -123.05873 | 23346 ft | 528 kts | 182° |
| 2026-04-16 15:44 | 43.59927 | -123.05712 | 22973 ft | 521 kts | 182° |
| 2026-04-16 15:44 | 43.56357 | -123.05549 | 22525 ft | 504 kts | 182° |
| 2026-04-16 15:45 | 43.52907 | -123.05390 | 22045 ft | 488 kts | 183° |
| 2026-04-16 15:45 | 43.49567 | -123.05238 | 21587 ft | 473 kts | 183° |
| 2026-04-16 15:45 | 43.46320 | -123.05094 | 21135 ft | 461 kts | 183° |
| 2026-04-16 15:45 | 43.43159 | -123.04956 | 20677 ft | 449 kts | 183° |
| 2026-04-16 15:46 | 43.40111 | -123.04825 | 20250 ft | 439 kts | 183° |
| 2026-04-16 15:46 | 43.37085 | -123.04697 | 19797 ft | 432 kts | 183° |
| 2026-04-16 15:46 | 43.34092 | -123.04571 | 19325 ft | 427 kts | 183° |
| 2026-04-16 15:46 | 43.31159 | -123.04446 | 18891 ft | 418 kts | 183° |
| 2026-04-16 15:47 | 43.28280 | -123.04322 | 18443 ft | 410 kts | 183° |
| 2026-04-16 15:47 | 43.25448 | -123.04200 | 17997 ft | 403 kts | 183° |
| 2026-04-16 15:47 | 43.22666 | -123.04081 | 17547 ft | 397 kts | 183° |
| 2026-04-16 15:47 | 43.19922 | -123.03965 | 17088 ft | 391 kts | 183° |
| 2026-04-16 15:48 | 43.17255 | -123.03850 | 16642 ft | 386 kts | 183° |
| 2026-04-16 15:48 | 43.14589 | -123.03736 | 16196 ft | 381 kts | 183° |
| 2026-04-16 15:48 | 43.11955 | -123.03624 | 15762 ft | 376 kts | 183° |
| 2026-04-16 15:48 | 43.09353 | -123.03512 | 15294 ft | 372 kts | 182° |
| 2026-04-16 15:49 | 43.06785 | -123.03403 | 14846 ft | 367 kts | 182° |
| 2026-04-16 15:49 | 43.04252 | -123.03294 | 14396 ft | 363 kts | 182° |
| 2026-04-16 15:49 | 43.01746 | -123.03187 | 13958 ft | 358 kts | 182° |
| 2026-04-16 15:49 | 42.99265 | -123.03080 | 13498 ft | 355 kts | 182° |
| 2026-04-16 15:50 | 42.96843 | -123.02976 | 13068 ft | 351 kts | 182° |
| 2026-04-16 15:50 | 42.94418 | -123.02873 | 12597 ft | 346 kts | 182° |
| 2026-04-16 15:50 | 42.92026 | -123.02771 | 12175 ft | 342 kts | 181° |
| 2026-04-16 15:50 | 42.89656 | -123.02671 | 11711 ft | 339 kts | 181° |
| 2026-04-16 15:51 | 42.87311 | -123.02572 | 11262 ft | 335 kts | 181° |
| 2026-04-16 15:51 | 42.84992 | -123.02473 | 10818 ft | 331 kts | 181° |
| 2026-04-16 15:51 | 42.82698 | -123.02378 | 10363 ft | 328 kts | 180° |
| 2026-04-16 15:51 | 42.80459 | -123.02282 | 9921 ft | 324 kts | 180° |
| 2026-04-16 15:52 | 42.78220 | -123.02186 | 9477 ft | 320 kts | 180° |
| 2026-04-16 15:52 | 42.76006 | -123.02093 | 9038 ft | 317 kts | 180° |
| 2026-04-16 15:52 | 42.73816 | -123.02000 | 8575 ft | 313 kts | 180° |
| 2026-04-16 15:52 | 42.71667 | -123.01908 | 8343 ft | 302 kts | 180° |
| 2026-04-16 15:53 | 42.69620 | -123.01820 | 8238 ft | 287 kts | 180° |
| 2026-04-16 15:53 | 42.67669 | -123.01737 | 8145 ft | 274 kts | 180° |
| 2026-04-16 15:53 | 42.65813 | -123.01656 | 8009 ft | 260 kts | 180° |
| 2026-04-16 15:53 | 42.64073 | -123.01390 | 7702 ft | 252 kts | 166° |
| 2026-04-16 15:54 | 42.62457 | -123.00605 | 7427 ft | 242 kts | 159° |
| 2026-04-16 15:54 | 42.60947 | -122.99771 | 7262 ft | 226 kts | 159° |
| 2026-04-16 15:54 | 42.59523 | -122.98975 | 6977 ft | 219 kts | 158° |
| 2026-04-16 15:54 | 42.58076 | -122.98174 | 6312 ft | 225 kts | 159° |
| 2026-04-16 15:55 | 42.56641 | -122.97406 | 5690 ft | 219 kts | 160° |
| 2026-04-16 15:55 | 42.55252 | -122.96670 | 5071 ft | 211 kts | 160° |
| 2026-04-16 15:55 | 42.53907 | -122.95961 | 4530 ft | 202 kts | 159° |
| 2026-04-16 15:55 | 42.52670 | -122.95307 | 4225 ft | 188 kts | 159° |
| 2026-04-16 15:56 | 42.51481 | -122.94680 | 3989 ft | 181 kts | 160° |
| 2026-04-16 15:56 | 42.50311 | -122.94065 | 3762 ft | 181 kts | 160° |
| 2026-04-16 15:56 | 42.49137 | -122.93446 | 3519 ft | 181 kts | 160° |
| 2026-04-16 15:56 | 42.47963 | -122.92830 | 3280 ft | 181 kts | 160° |
| 2026-04-16 15:57 | 42.46794 | -122.92220 | 3039 ft | 179 kts | 160° |
| 2026-04-16 15:57 | 42.45647 | -122.91614 | 2791 ft | 171 kts | 160° |
| 2026-04-16 15:57 | 42.44597 | -122.91061 | 2569 ft | 157 kts | 160° |
| 2026-04-16 15:57 | 42.43619 | -122.90547 | 2369 ft | 144 kts | 159° |
| 2026-04-16 15:58 | 42.42732 | -122.90081 | 2183 ft | 131 kts | 159° |
| 2026-04-16 15:58 | 42.41894 | -122.89639 | 2041 ft | 131 kts | 159° |
| 2026-04-16 15:58 | 42.41046 | -122.89194 | 1878 ft | 128 kts | 159° |
| 2026-04-16 15:58 | 42.40216 | -122.88757 | 1687 ft | 127 kts | 159° |
| 2026-04-16 15:59 | 42.38605 | -122.87912 | 1337 ft | 123 kts | 158° |
| 2026-04-16 15:59 | 42.37899 | -122.87537 | 1317 ft | 86 kts | 158° |
| 2026-04-16 15:59 | 42.37544 | -122.87348 | 1321 ft | 26 kts | 159° |
| 2026-04-16 16:00 | 42.37433 | -122.87292 | 1324 ft | 15 kts | 160° |
| 2026-04-16 16:00 | 42.37339 | -122.87295 | 1326 ft | 15 kts | 239° |
| 2026-04-16 16:00 | 42.37296 | -122.87373 | 1325 ft | 9 kts | 190° |
| 2026-04-16 16:00 | 42.37235 | -122.87352 | 1326 ft | 9 kts | 160° |
| 2026-04-16 16:01 | 42.37177 | -122.87323 | 1328 ft | 9 kts | 159° |
| 2026-04-16 16:01 | 42.37121 | -122.87295 | 1329 ft | 9 kts | 159° |
| 2026-04-16 16:01 | 42.37068 | -122.87265 | 1330 ft | 8 kts | 158° |
| 2026-04-16 16:01 | 42.37015 | -122.87237 | 1330 ft | 8 kts | 159° |
| 2026-04-16 16:02 | 42.36962 | -122.87226 | 1331 ft | 8 kts | 194° |
| 2026-04-16 16:02 | 42.36924 | -122.87270 | 1332 ft | 8 kts | 248° |
| 2026-04-16 16:02 | 42.36915 | -122.87330 | 1331 ft | 5 kts | 256° |
| 2026-04-16 16:02 | 42.36907 | -122.87362 | 1331 ft | 0 kts | 249° |